Time;durP1;ratioP1;P1;durP2;ratioP2;P2;SDS_P1;SDS_P2;PMS_P1;PMS_P2;Temp;Humidity;BMP_temperature;BMP_pressure;BME280_temperature;BME280_humidity;BME280_pressure;Samples;Min_cycle;Max_cycle;Signal;HPM_P1;HPM_P2
2024/04/01 00:01:25;;;;;;;3.45;1.17;;;;;;;10.62;100.00;98440.69;6073620;23;20034;-74
2024/04/01 00:03:55;;;;;;;1.73;0.80;;;;;;;10.61;100.00;98458.66;6098675;23;20021;-75
2024/04/01 00:06:26;;;;;;;0.90;0.43;;;;;;;10.61;100.00;98470.47;6122488;23;20364;-75
2024/04/01 00:08:54;;;;;;;4.25;1.25;;;;;;;10.61;100.00;98470.47;6122496;23;20017;-75
2024/04/01 00:11:22;;;;;;;3.78;1.20;;;;;;;10.59;100.00;98469.66;6123520;23;20030;-74
2024/04/01 00:13:48;;;;;;;3.13;1.20;;;;;;;10.57;100.00;98484.09;6124026;23;20049;-74
2024/04/01 00:16:17;;;;;;;6.07;1.00;;;;;;;10.57;100.00;98463.97;6123436;23;20025;-74
2024/04/01 00:18:44;;;;;;;3.70;1.92;;;;;;;10.53;100.00;98464.47;6124796;23;20030;-73
2024/04/01 00:21:12;;;;;;;2.17;0.73;;;;;;;10.51;100.00;98475.44;6154266;23;20025;-74
2024/04/01 00:23:39;;;;;;;4.50;2.10;;;;;;;10.49;100.00;98453.16;6141551;23;20081;-73
2024/04/01 00:26:06;;;;;;;6.72;0.50;;;;;;;10.48;100.00;98441.34;6127307;23;20480;-73
2024/04/01 00:28:34;;;;;;;3.90;0.70;;;;;;;10.48;100.00;98419.16;6113919;23;20025;-73
2024/04/01 00:31:01;;;;;;;2.67;0.63;;;;;;;10.49;100.00;98419.88;6148135;23;20014;-73
2024/04/01 00:33:29;;;;;;;2.53;1.13;;;;;;;10.49;100.00;98417.09;6147601;23;20020;-73
2024/04/01 00:35:56;;;;;;;2.00;0.60;;;;;;;10.47;100.00;98423.25;6103895;23;20026;-73
2024/04/01 00:38:23;;;;;;;4.93;0.98;;;;;;;10.45;100.00;98425.19;6098652;23;20022;-73
2024/04/01 00:40:52;;;;;;;0.90;0.40;;;;;;;10.43;100.00;98413.97;6123157;23;20480;-74
2024/04/01 00:43:18;;;;;;;1.60;0.70;;;;;;;10.44;100.00;98418.94;6127917;23;20105;-74
2024/04/01 00:45:47;;;;;;;3.58;1.55;;;;;;;10.44;100.00;98432.06;6135601;23;20022;-74
2024/04/01 00:48:16;;;;;;;8.00;1.23;;;;;;;10.47;100.00;98444.72;6120160;23;20045;-74
2024/04/01 00:50:49;;;;;;;0.73;0.43;;;;;;;10.49;100.00;98444.84;6135445;23;20269;-74
2024/04/01 00:53:17;;;;;;;1.70;0.65;;;;;;;10.49;100.00;98440.00;6122567;23;20017;-75
2024/04/01 00:55:48;;;;;;;5.50;1.08;;;;;;;10.48;100.00;98429.50;6098116;23;20052;-75
2024/04/01 00:58:15;;;;;;;1.50;0.57;;;;;;;10.49;100.00;98420.59;6121817;23;20108;-74
2024/04/01 01:00:43;;;;;;;7.60;0.52;;;;;;;10.48;100.00;98419.16;6122314;23;20108;-74
2024/04/01 01:03:13;;;;;;;1.88;0.65;;;;;;;10.49;100.00;98417.09;6122022;23;20029;-75
2024/04/01 01:05:40;;;;;;;1.48;0.60;;;;;;;10.50;100.00;98426.84;6121385;23;20025;-74
2024/04/01 01:08:10;;;;;;;1.37;0.47;;;;;;;10.49;100.00;98428.91;6122325;23;20036;-74
2024/04/01 01:10:38;;;;;;;6.05;0.98;;;;;;;10.53;100.00;98425.63;6074623;23;20052;-74
2024/04/01 01:13:04;;;;;;;2.20;0.60;;;;;;;10.51;100.00;98408.91;6122390;23;20091;-74
2024/04/01 01:15:32;;;;;;;7.13;0.77;;;;;;;10.44;100.00;98409.88;6122105;23;20072;-74
2024/04/01 01:17:59;;;;;;;1.83;0.60;;;;;;;10.38;100.00;98413.03;6122217;23;20032;-75
2024/04/01 01:20:26;;;;;;;2.38;0.40;;;;;;;10.38;100.00;98399.16;6097628;23;20036;-74
2024/04/01 01:22:56;;;;;;;0.45;0.20;;;;;;;10.36;100.00;98378.91;6096839;23;20357;-74
2024/04/01 01:25:23;;;;;;;4.57;0.20;;;;;;;10.36;100.00;98387.25;6122054;23;20115;-74
2024/04/01 01:27:50;;;;;;;2.90;0.52;;;;;;;10.33;100.00;98370.50;6122109;23;20580;-74
2024/04/01 01:30:17;;;;;;;0.52;0.30;;;;;;;10.29;100.00;98364.00;6097425;23;20026;-74
2024/04/01 01:32:45;;;;;;;4.80;0.85;;;;;;;10.30;100.00;98332.19;6121689;23;20475;-74
2024/04/01 01:35:16;;;;;;;1.23;0.55;;;;;;;10.30;100.00;98310.72;6121927;23;20195;-74
2024/04/01 01:37:43;;;;;;;2.33;0.68;;;;;;;10.41;100.00;98297.41;6122790;23;20037;-74
2024/04/01 01:40:12;;;;;;;3.78;0.40;;;;;;;10.45;100.00;98292.09;6121834;23;20049;-74
2024/04/01 01:42:39;;;;;;;2.73;0.60;;;;;;;10.55;100.00;98285.03;6121884;23;20025;-74
2024/04/01 01:45:08;;;;;;;0.80;0.40;;;;;;;10.62;100.00;98277.06;6122113;23;20057;-74
2024/04/01 01:47:35;;;;;;;2.15;0.60;;;;;;;10.46;100.00;98271.34;6122378;23;20592;-74
2024/04/01 01:50:04;;;;;;;1.67;0.70;;;;;;;10.48;100.00;98274.25;6123171;23;20025;-74
2024/04/01 01:52:32;;;;;;;5.05;0.93;;;;;;;10.48;100.00;98265.91;6099428;23;20614;-74
2024/04/01 01:55:01;;;;;;;1.55;0.93;;;;;;;10.40;100.00;98254.41;6123567;23;20547;-74
2024/04/01 01:57:29;;;;;;;2.63;0.40;;;;;;;10.40;100.00;98251.63;6099860;23;20053;-74
2024/04/01 02:00:05;;;;;;;1.13;0.40;;;;;;;10.39;100.00;98244.66;6124106;23;20017;-74
2024/04/01 02:02:32;;;;;;;2.60;0.50;;;;;;;10.44;100.00;98243.53;6124385;23;20113;-75
2024/04/01 02:05:02;;;;;;;10.98;0.88;;;;;;;10.46;100.00;98241.59;6124318;23;20069;-74
2024/04/01 02:07:28;;;;;;;0.93;0.32;;;;;;;10.38;100.00;98230.06;6124571;23;20448;-74
2024/04/01 02:09:56;;;;;;;0.80;0.15;;;;;;;10.33;100.00;98231.88;6124051;23;20154;-73
2024/04/01 02:12:23;;;;;;;2.58;0.50;;;;;;;10.31;100.00;98239.38;6099921;23;20048;-74
2024/04/01 02:14:51;;;;;;;1.08;0.32;;;;;;;10.32;100.00;98230.47;6123227;23;20026;-74
2024/04/01 02:17:18;;;;;;;1.00;0.35;;;;;;;10.27;100.00;98223.22;6099326;23;20025;-74
2024/04/01 02:19:46;;;;;;;1.15;0.63;;;;;;;10.28;100.00;98219.13;6099071;23;20048;-74
2024/04/01 02:22:13;;;;;;;0.25;0.15;;;;;;;10.32;100.00;98224.19;6074095;23;20753;-74
2024/04/01 02:24:42;;;;;;;0.52;0.10;;;;;;;10.29;100.00;98222.66;6100575;23;20079;-73
2024/04/01 02:27:10;;;;;;;3.30;0.10;;;;;;;10.30;100.00;98233.13;6100248;23;20033;-74
2024/04/01 02:29:38;;;;;;;1.10;0.10;;;;;;;10.29;100.00;98242.06;6124851;23;20104;-74
2024/04/01 02:32:06;;;;;;;1.45;0.47;;;;;;;10.25;100.00;98242.50;6099695;23;20025;-73
2024/04/01 02:34:34;;;;;;;0.88;0.30;;;;;;;10.20;100.00;98237.38;6127313;23;20360;-74
2024/04/01 02:37:02;;;;;;;0.25;0.10;;;;;;;10.15;100.00;98244.75;6103402;23;20079;-74
2024/04/01 02:39:29;;;;;;;3.55;0.32;;;;;;;10.15;100.00;98238.47;6140018;23;20025;-73
2024/04/01 02:41:57;;;;;;;1.95;0.20;;;;;;;10.15;100.00;98230.16;6100700;23;20025;-74
2024/04/01 02:44:25;;;;;;;0.77;0.10;;;;;;;10.15;100.00;98208.72;6123237;23;20025;-73
2024/04/01 02:46:52;;;;;;;2.75;0.10;;;;;;;10.26;100.00;98193.34;6123207;23;20030;-74
2024/04/01 02:49:20;;;;;;;1.33;0.30;;;;;;;10.44;100.00;98191.59;6123316;23;20029;-73
2024/04/01 02:51:49;;;;;;;1.50;0.57;;;;;;;10.35;100.00;98191.75;6099114;23;20114;-74
2024/04/01 02:54:17;;;;;;;0.30;0.10;;;;;;;10.13;100.00;98183.66;6098047;23;20416;-74
2024/04/01 02:56:44;;;;;;;2.00;0.10;;;;;;;10.04;100.00;98193.59;6123372;23;20351;-74
2024/04/01 02:59:12;;;;;;;1.98;0.40;;;;;;;10.05;100.00;98194.31;6100116;23;20456;-74
2024/04/01 03:01:50;;;;;;;2.05;0.57;;;;;;;10.08;100.00;98193.09;6125447;23;20075;-74
2024/04/01 03:04:17;;;;;;;0.77;0.30;;;;;;;9.99;100.00;98200.25;6123342;23;20022;-73
2024/04/01 03:06:46;;;;;;;0.98;0.25;;;;;;;9.96;100.00;98200.72;6123357;23;20025;-75
2024/04/01 03:09:14;;;;;;;0.15;0.10;;;;;;;9.87;100.00;98189.22;6123553;23;20554;-74
2024/04/01 03:11:41;;;;;;;1.23;0.30;;;;;;;9.92;100.00;98167.28;6123430;23;20036;-75
2024/04/01 03:14:10;;;;;;;1.10;0.38;;;;;;;9.86;100.00;98162.84;6099851;23;20057;-74
2024/04/01 03:16:37;;;;;;;1.63;0.35;;;;;;;9.87;100.00;98146.97;6123730;23;20026;-74
2024/04/01 03:19:05;;;;;;;1.85;0.30;;;;;;;9.81;100.00;98163.22;6123511;23;20025;-75
2024/04/01 03:21:39;;;;;;;1.05;0.50;;;;;;;9.84;100.00;98157.19;6076082;23;20040;-75
2024/04/01 03:24:08;;;;;;;0.98;0.40;;;;;;;9.80;100.00;98162.50;6132631;23;20030;-74
2024/04/01 03:26:35;;;;;;;0.25;0.10;;;;;;;9.74;100.00;98173.25;6135648;23;20025;-75
2024/04/01 03:29:04;;;;;;;0.10;0.10;;;;;;;9.73;100.00;98176.63;6145604;23;20021;-74
2024/04/01 03:31:32;;;;;;;1.88;0.30;;;;;;;9.79;100.00;98174.94;6110208;23;20036;-75
2024/04/01 03:34:02;;;;;;;0.30;0.10;;;;;;;9.74;100.00;98181.56;6128369;23;20025;-74
2024/04/01 03:36:29;;;;;;;2.80;0.40;;;;;;;9.73;100.00;98190.47;6099666;23;20037;-75
2024/04/01 03:38:56;;;;;;;0.22;0.10;;;;;;;9.72;100.00;98191.78;6124092;23;20025;-75
2024/04/01 03:41:25;;;;;;;2.05;0.30;;;;;;;9.76;100.00;98200.34;6124167;23;20032;-74
2024/04/01 03:43:52;;;;;;;0.17;0.08;;;;;;;9.75;100.00;98205.16;6123090;23;20482;-75
2024/04/01 03:46:21;;;;;;;;;;;;;;;9.73;100.00;98213.34;6124965;23;20025;-74
2024/04/01 03:48:49;;;;;;;0.75;0.32;;;;;;;9.95;100.00;98199.31;6124519;23;19924;-75
2024/04/01 03:51:15;;;;;;;0.77;0.10;;;;;;;10.10;100.00;98185.59;6123542;23;20092;-75
2024/04/01 03:53:43;;;;;;;0.30;0.10;;;;;;;10.01;100.00;98180.22;6122911;23;20053;-75
2024/04/01 03:56:11;;;;;;;0.13;0.10;;;;;;;9.84;100.00;98206.31;6125940;23;20033;-74
2024/04/01 03:58:40;;;;;;;2.08;0.30;;;;;;;9.71;100.00;98227.06;6127319;23;20030;-75
2024/04/01 04:01:08;;;;;;;3.50;0.20;;;;;;;9.71;100.00;98245.75;6142206;23;20300;-74
2024/04/01 04:03:35;;;;;;;0.70;0.40;;;;;;;9.70;100.00;98256.09;6138141;23;20036;-75
2024/04/01 04:06:02;;;;;;;0.20;0.15;;;;;;;9.69;100.00;98257.41;6104329;23;20021;-74
2024/04/01 04:08:30;;;;;;;1.67;0.52;;;;;;;9.68;100.00;98256.00;6140863;23;20036;-74
2024/04/01 04:10:57;;;;;;;0.53;0.30;;;;;;;9.68;100.00;98253.94;6147627;23;20033;-76
2024/04/01 04:13:24;;;;;;;0.68;0.30;;;;;;;9.68;100.00;98247.69;6146993;23;20535;-74
2024/04/01 04:15:53;;;;;;;0.70;0.25;;;;;;;9.80;100.00;98256.69;6101380;23;20083;-74
2024/04/01 04:18:21;;;;;;;3.22;0.00;;;;;;;9.75;100.00;98268.84;6123534;23;20131;-74
2024/04/01 04:20:47;;;;;;;1.85;0.50;;;;;;;9.69;100.00;98291.41;6122484;23;20405;-75
2024/04/01 04:23:14;;;;;;;0.93;0.30;;;;;;;9.70;100.00;98269.97;6123563;23;20557;-76
2024/04/01 04:25:41;;;;;;;1.08;0.32;;;;;;;9.78;100.00;98253.06;6100835;23;20025;-75
2024/04/01 04:28:13;;;;;;;0.35;0.20;;;;;;;9.73;100.00;98248.63;6095478;23;20033;-75
2024/04/01 04:30:39;;;;;;;4.90;0.52;;;;;;;9.67;100.00;98265.63;6127806;23;20026;-75
2024/04/01 04:33:09;;;;;;;1.48;0.68;;;;;;;9.61;100.00;98248.66;6150754;23;20041;-74
2024/04/01 04:35:36;;;;;;;2.60;0.40;;;;;;;9.58;100.00;98241.56;6127889;23;20032;-75
2024/04/01 04:38:04;;;;;;;0.85;0.38;;;;;;;9.64;100.00;98219.75;6124901;23;20148;-76
2024/04/01 04:40:30;;;;;;;0.40;0.20;;;;;;;9.66;100.00;98231.66;6123634;23;20754;-76
2024/04/01 04:42:58;;;;;;;1.52;0.22;;;;;;;9.61;100.00;98241.06;6122805;23;20029;-76
2024/04/01 04:45:25;;;;;;;0.35;0.25;;;;;;;9.60;100.00;98245.19;6123941;23;20036;-76
2024/04/01 04:47:54;;;;;;;4.77;0.60;;;;;;;9.59;100.00;98248.53;6124423;23;20101;-76
2024/04/01 04:50:25;;;;;;;1.95;0.50;;;;;;;9.61;100.00;98243.13;6124791;23;20756;-75
2024/04/01 04:52:55;;;;;;;1.65;0.45;;;;;;;9.57;100.00;98238.09;6126184;23;20037;-75
2024/04/01 04:55:22;;;;;;;1.85;0.82;;;;;;;9.52;100.00;98239.19;6077457;23;20029;-76
2024/04/01 04:57:53;;;;;;;2.33;0.30;;;;;;;9.53;100.00;98246.16;6118158;23;20072;-75
2024/04/01 05:00:22;;;;;;;4.25;0.40;;;;;;;9.54;100.00;98249.63;6140437;23;20021;-75
2024/04/01 05:02:50;;;;;;;0.65;0.30;;;;;;;9.53;100.00;98273.13;6124377;23;20452;-75
2024/04/01 05:05:17;;;;;;;1.55;0.30;;;;;;;9.48;100.00;98283.25;6124646;23;20025;-76
2024/04/01 05:07:47;;;;;;;0.93;0.40;;;;;;;9.53;100.00;98306.34;6143167;23;20049;-75
2024/04/01 05:10:14;;;;;;;1.13;0.63;;;;;;;9.51;100.00;98314.53;6151029;23;20069;-74
2024/04/01 05:12:42;;;;;;;2.00;0.75;;;;;;;9.51;100.00;98315.25;6127839;23;20028;-75
2024/04/01 05:15:09;;;;;;;0.68;0.43;;;;;;;9.53;100.00;98322.97;6151346;23;20013;-75
2024/04/01 05:17:37;;;;;;;1.33;0.60;;;;;;;9.57;100.00;98353.63;6151341;23;20025;-74
2024/04/01 05:20:04;;;;;;;1.20;0.60;;;;;;;9.61;100.00;98357.38;6135250;23;20021;-75
2024/04/01 05:22:32;;;;;;;0.90;0.50;;;;;;;9.59;100.00;98354.47;6122062;23;20033;-75
2024/04/01 05:24:59;;;;;;;1.20;0.55;;;;;;;9.57;100.00;98351.59;6123661;23;20021;-75
2024/04/01 05:27:27;;;;;;;2.05;1.17;;;;;;;9.58;100.00;98355.09;6124563;23;20040;-75
2024/04/01 05:30:03;;;;;;;2.00;0.75;;;;;;;9.59;100.00;98351.00;6125256;23;20036;-76
2024/04/01 05:32:30;;;;;;;1.48;0.70;;;;;;;9.57;100.00;98354.38;6100174;23;20021;-76
2024/04/01 05:34:57;;;;;;;1.17;0.38;;;;;;;9.63;100.00;98354.00;6124525;23;20029;-76
2024/04/01 05:37:25;;;;;;;1.55;0.73;;;;;;;9.62;100.00;98352.56;6125072;23;20036;-76
2024/04/01 05:39:52;;;;;;;2.10;0.55;;;;;;;9.58;100.00;98330.16;6123996;23;20033;-76
2024/04/01 05:42:23;;;;;;;1.02;0.60;;;;;;;9.60;100.00;98327.53;6097357;23;20033;-76
2024/04/01 05:44:49;;;;;;;3.40;0.85;;;;;;;9.52;100.00;98349.19;6121415;23;20036;-77
2024/04/01 05:47:23;;;;;;;1.08;0.38;;;;;;;9.52;100.00;98341.63;6122464;23;20025;-76
2024/04/01 05:49:49;;;;;;;2.67;0.80;;;;;;;9.53;100.00;98334.03;6121246;23;20021;-76
2024/04/01 05:52:17;;;;;;;3.25;0.70;;;;;;;9.50;100.00;98343.53;6121415;23;20025;-76
2024/04/01 05:54:43;;;;;;;1.30;0.40;;;;;;;9.51;100.00;98350.53;6096946;23;20022;-76
2024/04/01 05:57:11;;;;;;;3.95;0.80;;;;;;;9.49;100.00;98340.03;6121558;23;20017;-76
2024/04/01 05:59:39;;;;;;;1.13;0.40;;;;;;;9.51;100.00;98354.00;6121251;23;20460;-77
2024/04/01 06:02:07;;;;;;;0.50;0.35;;;;;;;9.53;100.00;98359.66;6121435;23;20673;-75
2024/04/01 06:04:33;;;;;;;1.13;0.63;;;;;;;9.56;100.00;98364.00;6096391;23;20487;-74
2024/04/01 06:07:00;;;;;;;1.95;0.50;;;;;;;9.55;100.00;98364.59;6095934;23;20491;-74
2024/04/01 06:09:27;;;;;;;1.00;0.40;;;;;;;9.57;100.00;98378.56;6096429;23;20416;-75
2024/04/01 06:11:54;;;;;;;1.73;0.50;;;;;;;9.55;100.00;98381.94;6120380;23;20069;-75
2024/04/01 06:14:21;;;;;;;1.75;0.40;;;;;;;9.59;100.00;98396.00;6121234;23;20072;-74
2024/04/01 06:16:49;;;;;;;1.73;0.77;;;;;;;9.60;100.00;98388.44;6181954;23;20086;-75
2024/04/01 06:19:17;;;;;;;3.75;0.70;;;;;;;9.57;100.00;98382.06;6180062;23;20415;-76
2024/04/01 06:21:47;;;;;;;1.33;0.60;;;;;;;9.54;100.00;98399.13;6203563;23;20025;-76
2024/04/01 06:24:15;;;;;;;4.10;0.93;;;;;;;9.65;100.00;98409.50;6230337;23;20024;-75
2024/04/01 06:26:43;;;;;;;1.67;0.60;;;;;;;9.60;100.00;98405.78;6205328;23;20056;-76
2024/04/01 06:29:13;;;;;;;1.50;0.55;;;;;;;9.62;100.00;98416.25;6206729;23;20103;-78
2024/04/01 06:31:41;;;;;;;5.10;0.77;;;;;;;9.57;100.00;98411.78;6185658;23;20056;-76
2024/04/01 06:34:11;;;;;;;1.02;0.47;;;;;;;9.56;100.00;98421.41;6209041;23;20021;-76
2024/04/01 06:36:39;;;;;;;1.10;0.47;;;;;;;9.62;100.00;98428.03;6208436;23;20020;-76
2024/04/01 06:39:06;;;;;;;0.65;0.45;;;;;;;9.66;100.00;98424.78;6209050;23;20048;-76
2024/04/01 06:41:35;;;;;;;0.70;0.40;;;;;;;9.63;100.00;98437.06;6183838;23;20044;-76
2024/04/01 06:44:01;;;;;;;4.15;0.50;;;;;;;9.67;100.00;98434.56;6208207;23;20042;-76
2024/04/01 06:46:29;;;;;;;0.98;0.40;;;;;;;9.69;100.00;98440.94;6183851;23;20044;-76
2024/04/01 06:49:02;;;;;;;1.95;0.50;;;;;;;9.70;100.00;98452.72;6208595;23;20020;-77
2024/04/01 06:51:31;;;;;;;0.80;0.30;;;;;;;9.70;100.00;98449.97;6208663;23;20024;-76
2024/04/01 06:53:57;;;;;;;3.28;0.70;;;;;;;9.68;100.00;98449.84;6209309;23;20055;-76
2024/04/01 06:56:25;;;;;;;1.17;0.50;;;;;;;9.70;100.00;98458.28;6209325;23;20017;-76
2024/04/01 06:58:52;;;;;;;0.88;0.38;;;;;;;9.72;100.00;98463.19;6208725;23;20582;-76
2024/04/01 07:01:20;;;;;;;2.55;0.40;;;;;;;9.79;100.00;98468.50;6208976;23;20021;-75
2024/04/01 07:03:47;;;;;;;0.60;0.30;;;;;;;9.84;100.00;98475.75;6184306;23;20024;-76
2024/04/01 07:06:14;;;;;;;0.60;0.30;;;;;;;9.85;100.00;98463.31;6185851;23;20028;-74
2024/04/01 07:08:42;;;;;;;0.47;0.15;;;;;;;9.85;100.00;98460.56;6213088;23;20028;-76
2024/04/01 07:11:10;;;;;;;2.78;0.50;;;;;;;9.94;100.00;98458.25;6216783;23;20074;-76
2024/04/01 07:13:36;;;;;;;0.77;0.20;;;;;;;9.94;100.00;98461.75;6247756;23;20028;-76
2024/04/01 07:16:05;;;;;;;1.05;0.32;;;;;;;10.01;100.00;98466.31;6200333;23;20028;-76
2024/04/01 07:18:35;;;;;;;2.35;0.55;;;;;;;10.13;100.00;98455.22;6231413;23;20028;-75
2024/04/01 07:21:03;;;;;;;1.73;0.50;;;;;;;10.16;100.00;98462.31;6210541;23;20032;-77
2024/04/01 07:23:29;;;;;;;1.00;0.30;;;;;;;10.22;100.00;98459.94;6209006;23;20155;-76
2024/04/01 07:25:59;;;;;;;4.70;0.40;;;;;;;10.35;100.00;98472.47;6208317;23;20025;-74
2024/04/01 07:28:25;;;;;;;0.98;0.32;;;;;;;10.46;100.00;98473.75;6208950;23;20031;-75
2024/04/01 07:30:52;;;;;;;4.85;0.28;;;;;;;10.60;100.00;98482.16;6208042;23;20451;-75
2024/04/01 07:33:19;;;;;;;1.23;0.30;;;;;;;10.58;100.00;98477.22;6207813;23;20028;-75
2024/04/01 07:35:47;;;;;;;0.40;0.28;;;;;;;10.66;100.00;98490.84;6207873;23;20024;-75
2024/04/01 07:38:14;;;;;;;0.15;0.10;;;;;;;10.67;100.00;98484.69;6208965;23;20021;-75
2024/04/01 07:40:42;;;;;;;0.38;0.10;;;;;;;10.75;100.00;98493.44;6209825;23;20024;-76
2024/04/01 07:43:12;;;;;;;0.77;0.40;;;;;;;10.71;100.00;98498.06;6209702;23;20092;-75
2024/04/01 07:45:45;;;;;;;0.38;0.20;;;;;;;10.59;100.00;98498.09;6211179;23;20046;-75
2024/04/01 07:48:14;;;;;;;0.68;0.35;;;;;;;10.59;100.00;98500.88;6223041;23;20031;-75
2024/04/01 07:50:42;;;;;;;0.95;0.25;;;;;;;10.59;100.00;98498.09;6231896;23;20040;-75
2024/04/01 07:53:10;;;;;;;0.47;0.20;;;;;;;10.56;100.00;98491.00;6206707;23;20023;-75
2024/04/01 07:55:38;;;;;;;0.98;0.30;;;;;;;10.64;100.00;98501.81;6245453;23;20032;-77
2024/04/01 07:58:04;;;;;;;0.30;0.15;;;;;;;10.64;100.00;98499.06;6207735;23;20087;-75
2024/04/01 08:00:33;;;;;;;0.25;0.00;;;;;;;10.63;100.00;98503.88;6208122;23;20020;-75
2024/04/01 08:02:59;;;;;;;0.10;0.00;;;;;;;10.71;100.00;98501.56;6208258;23;20071;-75
2024/04/01 08:05:27;;;;;;;0.70;0.20;;;;;;;10.72;100.00;98508.53;6233818;23;20020;-75
2024/04/01 08:07:53;;;;;;;0.28;0.10;;;;;;;10.82;100.00;98511.16;6213517;23;20025;-76
2024/04/01 08:10:21;;;;;;;0.20;0.00;;;;;;;10.93;100.00;98515.25;6252210;23;20068;-76
2024/04/01 08:12:48;;;;;;;0.38;0.20;;;;;;;10.94;100.00;98522.22;6224873;23;20276;-75
2024/04/01 08:15:15;;;;;;;0.55;0.10;;;;;;;10.86;100.00;98527.34;6218378;23;20024;-76
2024/04/01 08:17:44;;;;;;;0.43;0.10;;;;;;;10.85;100.00;98534.19;6182716;23;20024;-77
2024/04/01 08:20:11;;;;;;;1.10;0.30;;;;;;;10.79;100.00;98547.75;6233658;23;20078;-76
2024/04/01 08:22:38;;;;;;;3.00;0.10;;;;;;;10.70;100.00;98555.56;6182206;23;20048;-76
2024/04/01 08:25:05;;;;;;;0.65;0.10;;;;;;;10.71;100.00;98554.25;6207434;23;20051;-76
2024/04/01 08:27:33;;;;;;;0.70;0.10;;;;;;;10.70;100.00;98554.84;6206937;23;20020;-76
2024/04/01 08:30:01;;;;;;;1.13;0.35;;;;;;;10.61;100.00;98575.88;6232268;23;20478;-76
2024/04/01 08:32:28;;;;;;;0.93;0.25;;;;;;;10.61;100.00;98570.31;6182250;23;20020;-76
2024/04/01 08:35:00;;;;;;;2.95;0.52;;;;;;;10.57;100.00;98577.69;6206287;23;20029;-76
2024/04/01 08:37:26;;;;;;;0.30;0.20;;;;;;;10.57;100.00;98581.16;6207339;23;20091;-76
2024/04/01 08:39:55;;;;;;;1.15;0.30;;;;;;;10.57;100.00;98583.94;6182330;23;20132;-77
2024/04/01 08:42:22;;;;;;;1.77;0.20;;;;;;;10.48;100.00;98593.84;6206909;23;20025;-76
2024/04/01 08:44:53;;;;;;;1.63;0.10;;;;;;;10.43;100.00;98608.78;6206247;23;20044;-76
2024/04/01 08:47:22;;;;;;;0.28;0.20;;;;;;;10.38;100.00;98614.69;6182980;23;20047;-77
2024/04/01 08:49:58;;;;;;;0.50;0.10;;;;;;;10.27;100.00;98602.97;6182454;23;20131;-75
2024/04/01 08:52:27;;;;;;;0.52;0.28;;;;;;;10.30;100.00;98610.09;6183151;23;20032;-75
2024/04/01 08:54:55;;;;;;;0.38;0.10;;;;;;;10.22;100.00;98617.91;6206383;23;20020;-76
2024/04/01 08:57:21;;;;;;;0.00;0.00;;;;;;;10.23;100.00;98621.41;6207537;23;20025;-76
2024/04/01 08:59:50;;;;;;;0.38;0.10;;;;;;;10.33;100.00;98616.50;6208875;23;20024;-76
2024/04/01 09:02:17;;;;;;;0.30;0.17;;;;;;;10.41;100.00;98624.56;6208829;23;20752;-76
2024/04/01 09:04:45;;;;;;;0.05;0.00;;;;;;;10.21;100.00;98626.81;6208671;23;20028;-75
2024/04/01 09:07:14;;;;;;;1.48;0.08;;;;;;;10.21;100.00;98630.34;6207888;23;20020;-75
2024/04/01 09:09:43;;;;;;;0.65;0.17;;;;;;;10.33;100.00;98624.81;6184165;23;20760;-76
2024/04/01 09:12:10;;;;;;;2.97;0.30;;;;;;;10.34;100.00;98626.28;6210102;23;20029;-75
2024/04/01 09:14:37;;;;;;;2.65;0.30;;;;;;;10.46;100.00;98623.47;6233794;23;20355;-74
2024/04/01 09:17:03;;;;;;;0.43;0.10;;;;;;;10.43;100.00;98627.47;6209122;23;20076;-75
2024/04/01 09:19:31;;;;;;;0.10;0.00;;;;;;;10.64;100.00;98627.34;6208814;23;20064;-75
2024/04/01 09:22:01;;;;;;;0.38;0.20;;;;;;;10.55;100.00;98636.50;6207339;23;20498;-75
2024/04/01 09:24:29;;;;;;;;;;;;;;;10.59;100.00;98627.72;6209115;23;20739;-74
2024/04/01 09:26:56;;;;;;;0.10;0.08;;;;;;;10.54;100.00;98638.56;6209011;23;19916;-74
2024/04/01 09:29:24;;;;;;;0.25;0.17;;;;;;;10.12;100.00;98656.81;6209664;23;20028;-74
2024/04/01 09:31:52;;;;;;;0.30;0.10;;;;;;;10.17;100.00;98643.94;6209555;23;20079;-75
2024/04/01 09:34:21;;;;;;;0.70;0.20;;;;;;;10.14;100.00;98653.44;6244412;23;20664;-74
2024/04/01 09:36:49;;;;;;;0.38;0.10;;;;;;;10.18;100.00;98652.97;6219995;23;20108;-75
2024/04/01 09:39:18;;;;;;;0.00;0.00;;;;;;;10.08;100.00;98662.09;6209825;23;20035;-75
2024/04/01 09:41:45;;;;;;;0.20;0.10;;;;;;;10.09;100.00;98671.16;6208523;23;20262;-75
2024/04/01 09:44:14;;;;;;;0.93;0.32;;;;;;;10.00;100.00;98661.59;6183412;23;20370;-75
2024/04/01 09:46:41;;;;;;;1.38;0.20;;;;;;;10.17;100.00;98670.94;6232819;23;20020;-75
2024/04/01 09:49:11;;;;;;;1.00;0.32;;;;;;;10.32;100.00;98664.94;6208475;23;20025;-75
2024/04/01 09:51:37;;;;;;;1.05;0.38;;;;;;;10.34;100.00;98670.63;6183958;23;20035;-75
2024/04/01 09:54:06;;;;;;;0.98;0.32;;;;;;;10.47;100.00;98689.44;6208202;23;20025;-76
2024/04/01 09:57:19;;;;;;;0.77;0.10;;;;;;;10.44;100.00;98682.31;6183065;23;20025;-75
2024/04/01 10:00:19;;;;;;;0.13;0.10;;;;;;;10.44;100.00;98689.94;6183664;23;20029;-76
2024/04/01 10:03:04;;;;;;;;;;;;;;;10.50;100.00;98704.16;6183392;23;20525;-75
2024/04/01 10:05:53;;;;;;;1.02;0.05;;;;;;;10.49;100.00;98691.63;6231667;23;19927;-76
2024/04/01 10:08:45;;;;;;;1.00;0.20;;;;;;;10.62;100.00;98702.09;6208178;23;20021;-76
2024/04/01 10:11:34;;;;;;;1.10;0.20;;;;;;;10.64;100.00;98712.63;6207286;23;20287;-75
2024/04/01 10:14:39;;;;;;;0.22;0.10;;;;;;;10.61;100.00;98703.44;6206979;23;20339;-76
2024/04/01 10:17:47;;;;;;;0.25;0.13;;;;;;;10.80;100.00;98719.13;6134518;23;20028;-76
2024/04/01 10:20:52;;;;;;;0.30;0.08;;;;;;;10.70;100.00;98724.78;6208687;23;20025;-75
2024/04/01 10:24:06;;;;;;;0.17;0.10;;;;;;;10.43;100.00;98728.00;6206951;23;20020;-77
2024/04/01 10:26:43;;;;;;;1.35;0.30;;;;;;;10.50;100.00;98732.59;6209413;23;20103;-76
2024/04/01 10:29:53;;;;;;;1.95;0.43;;;;;;;10.53;100.00;98730.66;6213661;23;20027;-77
2024/04/01 10:33:04;;;;;;;0.63;0.30;;;;;;;10.63;100.00;98744.44;6222834;23;20025;-75
2024/04/01 10:36:04;;;;;;;2.45;0.30;;;;;;;10.98;100.00;98738.94;6214497;23;20021;-75
2024/04/01 10:39:06;;;;;;;1.13;0.38;;;;;;;10.79;100.00;98748.19;6208277;23;20021;-75
2024/04/01 10:42:17;;;;;;;1.00;0.52;;;;;;;10.89;100.00;98761.97;6202467;23;20020;-75
2024/04/01 10:45:24;;;;;;;1.17;0.35;;;;;;;10.87;100.00;98764.59;6176428;23;20116;-76
2024/04/01 10:48:14;;;;;;;0.75;0.30;;;;;;;10.92;100.00;98771.84;6206756;23;20019;-76
2024/04/01 10:51:25;;;;;;;0.28;0.10;;;;;;;10.57;100.00;98769.75;6207598;23;20028;-76
2024/04/01 10:54:04;;;;;;;0.28;0.10;;;;;;;10.65;100.00;98773.00;6195861;23;20028;-74
2024/04/01 10:57:18;;;;;;;2.28;0.30;;;;;;;10.90;100.00;98788.38;6232404;23;20020;-75
2024/04/01 11:00:23;;;;;;;0.90;0.10;;;;;;;11.18;100.00;98792.84;6187466;23;20025;-74
2024/04/01 11:03:35;;;;;;;0.20;0.08;;;;;;;11.27;100.00;98787.78;6207289;23;20104;-75
2024/04/01 11:06:32;;;;;;;0.28;0.10;;;;;;;10.94;100.00;98786.56;6150715;23;20120;-74
2024/04/01 11:09:35;;;;;;;0.32;0.10;;;;;;;10.98;100.00;98791.66;6173325;23;20025;-78
2024/04/01 11:12:20;;;;;;;0.10;0.00;;;;;;;11.18;100.00;98792.84;6173684;23;20032;-75
2024/04/01 11:14:56;;;;;;;0.35;0.20;;;;;;;11.05;100.00;98795.50;6181819;23;20096;-76
2024/04/01 11:17:25;;;;;;;0.00;0.00;;;;;;;11.02;100.00;98805.75;6231865;23;20016;-76
2024/04/01 11:20:30;;;;;;;0.20;0.10;;;;;;;11.01;100.00;98804.31;6206772;23;20447;-75
2024/04/01 11:23:26;;;;;;;0.90;0.30;;;;;;;11.26;100.00;98817.59;6205580;23;20463;-76
2024/04/01 11:26:11;;;;;;;0.03;0.00;;;;;;;11.02;100.00;98822.41;6206928;23;20328;-76
2024/04/01 11:28:55;;;;;;;0.00;0.00;;;;;;;10.84;100.00;98824.09;6232623;23;20021;-76
2024/04/01 11:31:24;;;;;;;0.35;0.10;;;;;;;10.95;100.00;98834.47;6206957;23;20103;-76
2024/04/01 11:34:19;;;;;;;0.60;0.17;;;;;;;10.69;100.00;98828.75;6207615;23;20032;-77
2024/04/01 11:36:54;;;;;;;0.65;0.20;;;;;;;10.75;100.00;98837.44;6193510;23;20407;-74
2024/04/01 11:39:23;;;;;;;0.52;0.20;;;;;;;10.71;100.00;98851.06;6207195;23;20055;-76
2024/04/01 11:41:51;;;;;;;0.25;0.10;;;;;;;10.87;100.00;98840.25;6231992;23;20679;-77
2024/04/01 11:44:25;;;;;;;0.98;0.50;;;;;;;11.07;100.00;98860.19;6207339;23;20079;-76
2024/04/01 11:46:52;;;;;;;0.20;0.10;;;;;;;11.27;100.00;98871.06;6206361;23;20021;-75
2024/04/01 11:49:39;;;;;;;1.35;0.28;;;;;;;11.33;100.00;98877.00;6207442;23;20029;-76